Karl Mets

Chefscout - Sillamae Kalev
22 Feb 2028
Dienstag
Verarbeitung

Persönlichkeit

Anpassungsfähigkeit (1) Ehrgeiz (3) Kontroverse (13) Loyalität (14) Druck (7) Professionalität (1) Fairness (15) Temperament (1)

Profil

Trainerstil Demokratisch
Lizenz Kontinentale Pro
Entschlossenheit 5
Menschenführung 8
Motivation 6
Disziplin 3
Arbeitszufriedenheit
100%
Ermüdung
0%
Rolle Chefscout
Gehalt 28.3K p/W
Vertrag 14.03.2030

Leistung

Verhalten Gut
Trainingseffektivität
20%
Spielerentwicklung
40%
Verletzungsprävention
5%
Taktische Umsetzung
5%

Letzte Ereignisse

Nahm an einer Scouting-Besprechung teil jetzt
Empfahl ein Transferziel jetzt
Nahm an einer Scouting-Besprechung teil 7T her
Empfahl ein Transferziel 7T her
Empfahl ein Transferziel 7T her
Empfahl ein Transferziel 7T her
Empfahl ein Transferziel 14T her
Empfahl ein Transferziel 14T her

Aktuell beobachtet

179
Spieler Verein Status Fähigkeit Vertrauen Beobachtet Zuletzt beobachtet Letzte Stimme
Kauã Miranda Narva Trans Verhandlung 65 / 72 65% 1 02.01.2028 Befürworten
Alexandr Saplinov Volga Aktiv 107 / 94 40% 5 01.01.2028 -
Santiago Sala Güemes Aktiv 109 / 113 40% 1 01.01.2028 -
Sebastián Cocimano Nueva Chicago Aktiv 105 / 129 40% 1 01.01.2028 -
Juan Esteban Ávalo Aguilas Doradas Aktiv 122 / 129 40% 2 30.12.2027 -
Kirill Moiseev Rostov Aktiv 88 / 93 40% 1 30.12.2027 -
Juan Yangali San Telmo Aktiv 110 / 125 40% 1 30.12.2027 -
Duvan Rangel La Equidad Aktiv 143 / 139 40% 1 28.12.2027 -
Juan Sebastián Herrera Deportivo La Guaira Aktiv 120 / 114 40% 1 28.12.2027 -
Armando Preciado Deportes Quindio Aktiv 102 / 80 40% 1 28.12.2027 -
Estanislao Jara Madryn Aktiv 117 / 93 40% 1 27.12.2027 -
Brian Farioli Estudiantes Aktiv 116 / 131 40% 1 27.12.2027 -
Iñaki Larthirigoyen San Telmo Aktiv 127 / 132 40% 1 27.12.2027 -
Maximiliano Ribero Central Norte Aktiv 117 / 96 40% 2 25.12.2027 -
Abel Bustos Racing Aktiv 103 / 131 40% 1 25.12.2027 -
Rodrigo González Mitre Aktiv 125 / 101 40% 1 25.12.2027 -
Danil Karpov KAMAZ Aktiv 100 / 96 40% 4 24.12.2027 -
Julián Cosi Madryn Aktiv 112 / 119 40% 1 24.12.2027 -
Matías Benítez San Miguel Aktiv 102 / 100 40% 1 21.12.2027 -
Augusto Berrondo Tristán Suárez Aktiv 98 / 104 40% 1 21.12.2027 -
Idris Saidu Barau Aktiv 92 / 80 40% 1 18.12.2027 -
Axel Batista Quilmes Aktiv 109 / 122 40% 1 18.12.2027 -
Ariel Castellano Alvarado Aktiv 105 / 85 40% 1 18.12.2027 -
Ramazan Gadjimuradov Chelyabinsk Aktiv 111 / 112 40% 3 17.12.2027 -
Enzo Trinidad Colegiales Aktiv 106 / 119 40% 1 17.12.2027 -
Danila Kozlov Ufa Aktiv 121 / 118 40% 1 17.12.2027 -
Lautaro Disanto Defensores Unidos Aktiv 107 / 107 40% 1 15.12.2027 -
Jeizon Ramírez Chacón Metropolitanos Aktiv 93 / 86 40% 1 15.12.2027 -
Federico Bisanz Atlanta Aktiv 121 / 127 40% 1 15.12.2027 -
Agustín Benítez Defensores Aktiv 123 / 95 40% 1 14.12.2027 -
Vladislav Melko Torpedo-BelAZ Aktiv 102 / 93 40% 1 14.12.2027 -
Enzo Acosta Estudiantes Aktiv 103 / 128 40% 1 14.12.2027 -
Timofey Simanenka Gomel Aktiv 94 / 103 40% 1 12.12.2027 -
Kirill Leonovich Gomel Aktiv 95 / 101 40% 1 12.12.2027 -
Nikolay Giorgobiani Fakel Aktiv 116 / 111 40% 1 12.12.2027 -
Thomas Ortega Quilmes Aktiv 122 / 116 40% 1 11.12.2027 -
Oscar Garrido Mitre Aktiv 128 / 124 40% 1 11.12.2027 -
Enzo Martínez Almagro Aktiv 112 / 103 40% 1 09.12.2027 -
Tiago Banega Gimnasia y Tiro Aktiv 100 / 120 40% 1 09.12.2027 -
Braian Aranda Agropecuario Argentino Aktiv 104 / 113 40% 1 09.12.2027 -
Ifeanyi Assurance Rangers International Aktiv 88 / 81 40% 1 07.12.2027 -
Brian Calderara Chacarita Juniors Aktiv 120 / 110 40% 1 07.12.2027 -
Nikita Saltykov Rotor Aktiv 112 / 109 40% 1 07.12.2027 -
Konstantin Kuchinskiy Minsk Aktiv 96 / 100 40% 1 06.12.2027 -
Abubakar Taheer Shooting Stars Aktiv 87 / 75 40% 1 06.12.2027 -
Kenan Dervišagić Floriana Aktiv 101 / 100 40% 2 17.08.2027 -
Niccolò Corti Pergolettese Aktiv 92 / 90 40% 1 17.08.2027 -
Valeri Shantenkov Narva Trans Aktiv 60 / 79 65% 1 21.06.2027 Befürworten
Aleksandr Jegorov Narva Trans Aktiv 67 / 52 65% 1 02.06.2027 Befürworten
Kirill Malyarov Shinnik Aktiv 96 / 91 40% 4 31.05.2027 -
Lamine Diakité Djoliba Aktiv 98 / 99 40% 2 31.05.2027 -
Sergey Gaiduk Salyut Aktiv 71 / 90 40% 1 31.05.2027 -
Artem Stepanovich Sevastopol Aktiv 91 / 83 40% 5 30.05.2027 -
Yeangel Montero Naxxar Lions Aktiv 98 / 118 40% 3 30.05.2027 -
Dmitry Kamenschikov Arsenal Tula Aktiv 99 / 100 40% 1 30.05.2027 -
Ansor Khabibov Ryazan Aktiv 89 / 90 40% 2 29.05.2027 -
Vasily Cherov Ufa Aktiv 104 / 94 40% 2 29.05.2027 -
Migran Ageyan Ufa Aktiv 88 / 96 40% 5 29.05.2027 -
Daniil Konoplev Dinamo Bryansk Aktiv 79 / 77 40% 4 28.05.2027 -
Malick Traoré Onze Createurs Aktiv 102 / 85 40% 2 28.05.2027 -
Arseny Vainer Nosta Aktiv 83 / 66 40% 1 28.05.2027 -
Danila Yezhkov Dinamo Vologda Aktiv 90 / 85 40% 4 27.05.2027 -
Alexandr Khokhlachev Rotor Aktiv 96 / 99 40% 1 27.05.2027 -
Anton Antonov Chernomorets Aktiv 92 / 94 40% 2 26.05.2027 -
Artem Ntumba Rubin Yalta Aktiv 78 / 67 40% 2 25.05.2027 -
Vladislav Tyurin Saturn Aktiv 85 / 71 40% 1 25.05.2027 -
Yegor Ponomarev Tver Aktiv 70 / 78 40% 1 25.05.2027 -
Oleksandr Masalov Dinamo St Petersburg Aktiv 83 / 93 40% 4 24.05.2027 -
Arshak Koryan SKA Khabarovsk Aktiv 98 / 96 40% 5 24.05.2027 -
Ekain Orobengoa Real Sociedad Aktiv 91 / 111 40% 3 24.05.2027 -
Leon Sabua Fakel Aktiv 103 / 88 40% 1 24.05.2027 -
Andrey Nikitin Neftekhimik Aktiv 97 / 88 40% 2 23.05.2027 -
Alexandr Shlenkin Dinamo Bryansk Aktiv 83 / 75 40% 4 22.05.2027 -
Đorđe Pantelić Spartak Kostroma Aktiv 112 / 112 40% 3 22.05.2027 -
Rashid Magomedov Neftekhimik Aktiv 95 / 96 40% 1 22.05.2027 -
David Kokoev Yenisey Aktiv 110 / 113 40% 3 20.05.2027 -
Tigran Avanesyan Arsenal Tula Aktiv 107 / 111 40% 2 20.05.2027 -
Darko Todorović Fakel Aktiv 123 / 112 40% 1 20.05.2027 -
Omar Popov Dinamo St Petersburg Aktiv 77 / 73 40% 8 19.05.2027 -
David Davidyan Rotor Aktiv 106 / 110 40% 4 19.05.2027 -
Tamaz Topuria Mashuk Aktiv 91 / 82 40% 2 19.05.2027 -
Jorge Meireles AVS Aktiv 116 / 119 40% 1 19.05.2027 -
Ousmane Coulibaly Stade Malien Aktiv 105 / 105 40% 1 19.05.2027 -
Sebastián Arce Rodina Aktiv 119 / 101 40% 1 19.05.2027 -
Surkhaikhan Abdullaev KAMAZ Aktiv 91 / 93 40% 2 18.05.2027 -
Alexandr Galimov Luki-Energiya Aktiv 70 / 76 40% 1 18.05.2027 -
Ruslan Cherviakov Spartak Kostroma Aktiv 100 / 105 40% 5 17.05.2027 -
Igor Gorbunov Arsenal Tula Aktiv 90 / 94 40% 3 17.05.2027 -
Said Aliev Rotor Aktiv 96 / 90 40% 4 17.05.2027 -
Roman Kopylov Tver Aktiv 72 / 77 40% 1 17.05.2027 -
Makan Camara AS Bakaridjan Aktiv 111 / 102 40% 2 16.05.2027 -
Banou Cissé Real Bamako Aktiv 109 / 84 40% 3 16.05.2027 -
Nikita Simdyankin KDV Tomsk Aktiv 88 / 85 40% 1 16.05.2027 -
Alan Khabalov Ufa Aktiv 96 / 102 40% 1 15.05.2027 -
Danil Lipovoy Ufa Aktiv 104 / 95 40% 1 15.05.2027 -
Danil Polyakh Rubin Yalta Aktiv 74 / 71 40% 2 14.05.2027 -
Ivan Gulko KAMAZ Aktiv 92 / 78 40% 1 14.05.2027 -
David Karaev KAMAZ Aktiv 97 / 104 40% 3 13.05.2027 -
Bojan Dimoski Akron Aktiv 103 / 109 40% 1 13.05.2027 -
Ilja Zhigulev Chernomorets Aktiv 104 / 110 40% 1 13.05.2027 -
Artem Medvedev Dinamo Bryansk Aktiv 94 / 97 40% 3 12.05.2027 -
Ibragim Umarov Pobeda Aktiv 89 / 90 40% 2 12.05.2027 -
Ilja Azyavin Arsenal Tula Aktiv 90 / 81 40% 2 12.05.2027 -
Magomed Abakarov Rotor Aktiv 86 / 86 40% 1 12.05.2027 -
Pedro Cejas Zabbar St. Patrick Aktiv 94 / 71 40% 3 11.05.2027 -
Andrey Bokovoy Spartak Tambov Aktiv 80 / 78 40% 3 09.05.2027 -
Alexandr Lomakin Yenisey Aktiv 96 / 92 40% 1 09.05.2027 -
Kirill Bogdanets Volna Aktiv 83 / 82 40% 1 09.05.2027 -
Matías Gómez Granada Aktiv 102 / 139 40% 1 06.05.2027 -
Daniil Kondakov Zenit Aktiv 83 / 79 40% 1 06.05.2027 -
Magomed Nasibov Pobeda Aktiv 78 / 79 40% 5 04.05.2027 -
Vitaly Dunay (Karpenko) Chaika Aktiv 94 / 101 40% 2 04.05.2027 -
Alexey Berdnikov Chelyabinsk Aktiv 98 / 98 40% 1 04.05.2027 -
Thomas Waddingham Portsmouth Aktiv 98 / 96 40% 1 04.05.2027 -
Azər Əliyev Yenisey Aktiv 95 / 94 40% 1 02.05.2027 -
Garrik Levin Chelyabinsk Aktiv 96 / 105 40% 3 01.05.2027 -
Nikita Rozhkov Dinamo Stavropol Aktiv 78 / 86 40% 5 01.05.2027 -
Stepan Melnikov Fakel Aktiv 84 / 101 40% 1 29.04.2027 -
Ilja Gruznov Khimik Aktiv 93 / 76 40% 1 28.04.2027 -
Dmitry Kuptsov Spartak Tambov Aktiv 85 / 73 40% 1 28.04.2027 -
Daniil Kondrakov KDV Tomsk Aktiv 87 / 83 40% 2 27.04.2027 -
Kamran Aliev SKA Khabarovsk Aktiv 103 / 99 40% 5 25.04.2027 -
Nikita Yershov Kosmos Aktiv 86 / 74 40% 2 25.04.2027 -
Mikhail Gainov Dinamo Stavropol Aktiv 90 / 73 40% 2 24.04.2027 -
Jon Eceizabarrena Real Sociedad Aktiv 102 / 98 40% 1 24.04.2027 -
Malick Touré Onze Createurs Aktiv 84 / 81 40% 1 24.04.2027 -
Albert Rusnak FK Senica Aktiv 85 / 83 40% 1 23.04.2027 -
Nikolay Boyarkin Salyut Aktiv 83 / 91 40% 3 22.04.2027 -
Aaron Drinan Swindon Town Aktiv 115 / 116 40% 2 22.04.2027 -
Dramane Traoré AS Korofina Aktiv 86 / 98 40% 1 22.04.2027 -
Danila Matvevnin Kosmos Aktiv 72 / 64 40% 1 21.04.2027 -
Ilja Vakhania Krasnodar Aktiv 115 / 112 40% 2 20.04.2027 -
Vladislav Yakovlev Volga Aktiv 93 / 94 40% 1 18.04.2027 -
Nikita Trapitsyn Zenit Aktiv 73 / 69 40% 2 17.04.2027 -
Timur Zhamaletdinov Arsenal Tula Aktiv 85 / 86 40% 1 15.04.2027 -
Jacobo Alcalde SKA Khabarovsk Aktiv 85 / 99 40% 4 14.04.2027 -
Fortune Bassey Djoliba Aktiv 92 / 95 40% 3 13.04.2027 -
Ivan Matyushenko Alania Aktiv 81 / 91 40% 1 13.04.2027 -
Víctor Guzmán Sporting CP Aktiv 104 / 106 40% 1 13.04.2027 -
Anton Betyuzhnov Dinamo Vologda Aktiv 72 / 73 40% 3 10.04.2027 -
Nikita Demchenko Spartak Kostroma Aktiv 100 / 97 40% 1 10.04.2027 -
Artur Murza Volga Aktiv 93 / 100 40% 1 10.04.2027 -
Artem Golubev Shinnik Aktiv 92 / 93 40% 2 09.04.2027 -
Sergey Gribov Dinamo Bryansk Aktiv 83 / 93 40% 1 09.04.2027 -
Andrey Okladnikov Yenisey Aktiv 90 / 100 40% 1 09.04.2027 -
Facundo González Yenisey Aktiv 93 / 103 40% 1 09.04.2027 -
Andrea Chukanov Yenisey Aktiv 104 / 107 40% 3 07.04.2027 -
Giorgi Kantaria Neftekhimik Aktiv 103 / 106 40% 2 06.04.2027 -
Robert Murić Floriana Aktiv 109 / 114 40% 1 06.04.2027 -
Zakhar Tarasenko Veles Aktiv 85 / 97 40% 1 06.04.2027 -
Calum Agius Crewe Alexandra Aktiv 89 / 105 40% 1 06.04.2027 -
Eduard Bagrintsev Znamya Truda Aktiv 71 / 75 40% 1 05.04.2027 -
Ruslan Baitukov Chelyabinsk Aktiv 95 / 94 40% 2 04.04.2027 -
Ilnur Badrtdinov Metallurg Aktiv 73 / 70 40% 1 03.04.2027 -
Sultan Djamilov Neftekhimik Aktiv 95 / 86 40% 1 02.04.2027 -
Evgeny Voronin Volga Aktiv 96 / 84 40% 1 31.03.2027 -
Daniil Grigorjev Metallurg Aktiv 81 / 90 40% 1 28.03.2027 -
Yegor Gulyaev Chaika Aktiv 84 / 76 40% 1 28.03.2027 -
Alexandr Dolgov Amkar Aktiv 103 / 84 40% 2 27.03.2027 -
Soslan Takulov Neftekhimik Aktiv 91 / 103 40% 1 26.03.2027 -
Damir Céter Hamrun Spartans Aktiv 109 / 82 40% 1 25.03.2027 -
Krasian Kolev Chernomorets Aktiv 96 / 106 40% 1 21.03.2027 -
Benard Mundi Stade Malien Aktiv 91 / 97 40% 1 17.03.2027 -
Ruslan Chobanov Chaika Aktiv 86 / 88 40% 1 15.03.2027 -
Bruno Gomes Valletta Aktiv 101 / 104 40% 1 14.03.2027 -
Josh Dacres-Cogley Stockport County Aktiv 112 / 104 40% 1 06.03.2027 -
Dmitry Sasin Sokol Aktiv 86 / 90 40% 2 05.03.2027 -
Kirill Bozhenov SKA Khabarovsk Aktiv 107 / 109 40% 1 02.03.2027 -
Erik Sappinen Tulevik Aktiv 55 / 46 58% 1 25.01.2027 -
Sander Alamaa Flora Aktiv 54 / 66 58% 1 07.01.2027 Befürworten
Andrey Yakovlev Dinamo Vologda Aktiv 97 / 81 40% 1 22.12.2026 -
Emil Gallyamov Amkar Aktiv 68 / 70 40% 2 16.12.2026 -
Artur Gilyazetdinov Yenisey Aktiv 92 / 103 40% 1 11.12.2026 -
Semyon Radostev Astrakhan Aktiv 78 / 77 40% 1 10.12.2026 -
Kevin Pina Krasnodar Aktiv 118 / 129 40% 1 18.11.2026 -
Daniel Luts Paide Aktiv 67 / 71 58% 1 24.08.2026 Befürworten
Mark Hendrik Kukk Flora Aktiv 59 / 65 58% 1 10.08.2026 -
Nemanja Mihajlović Zalgiris Aktiv 97 / 108 40% 1 02.08.2026 -
Mamadou Camara Torpedo Moscow Aktiv 83 / 99 40% 1 02.08.2026 -